createdAt,value
2018-09-04T00:00:26.548Z,218.70
2018-09-04T00:01:26.555Z,146.80
2018-09-04T00:02:26.528Z,163.40
2018-09-04T00:03:26.512Z,187.90
2018-09-04T00:04:26.502Z,169.40
2018-09-04T00:05:26.506Z,150.80
2018-09-04T00:06:26.496Z,145.00
2018-09-04T00:07:26.493Z,167.40
2018-09-04T00:08:26.460Z,209.60
2018-09-04T00:09:26.450Z,136.70
2018-09-04T00:10:26.471Z,165.90
2018-09-04T00:11:26.441Z,157.80
2018-09-04T00:12:26.420Z,217.70
2018-09-04T00:13:26.408Z,206.90
2018-09-04T00:14:26.397Z,192.90
2018-09-04T00:15:26.380Z,198.90
2018-09-04T00:16:26.388Z,288.30
2018-09-04T00:17:26.360Z,507.80
2018-09-04T00:18:26.347Z,314.60
2018-09-04T00:19:26.343Z,263.90
2018-09-04T00:20:26.330Z,250.40
2018-09-04T00:21:26.335Z,233.20
2018-09-04T00:22:26.310Z,217.60
2018-09-04T00:23:26.294Z,205.60
2018-09-04T00:24:26.283Z,243.60
2018-09-04T00:25:26.273Z,210.00
2018-09-04T00:26:26.277Z,199.00
2018-09-04T00:27:26.255Z,217.80
2018-09-04T00:28:26.244Z,230.50
2018-09-04T00:29:26.228Z,227.50
2018-09-04T00:30:26.216Z,248.90
2018-09-04T00:31:26.232Z,324.90
2018-09-04T00:32:26.203Z,233.80
2018-09-04T00:33:26.189Z,311.90
2018-09-04T00:34:26.261Z,235.10
2018-09-04T00:35:26.170Z,349.80
2018-09-04T00:36:26.170Z,271.00
2018-09-04T00:37:26.143Z,289.50
2018-09-04T00:38:26.129Z,211.60
2018-09-04T00:39:26.126Z,273.50
2018-09-04T00:40:26.112Z,341.70
2018-09-04T00:41:26.118Z,346.50
2018-09-04T00:42:26.095Z,255.30
2018-09-04T00:43:26.074Z,285.40
2018-09-04T00:44:26.067Z,268.50
2018-09-04T00:45:26.057Z,261.60
2018-09-04T00:46:26.066Z,297.80
2018-09-04T00:47:26.033Z,258.20
2018-09-04T00:48:26.023Z,266.50
2018-09-04T00:49:26.012Z,295.00
2018-09-04T00:50:26.002Z,327.90
2018-09-04T00:51:26.012Z,286.70
2018-09-04T00:52:25.981Z,314.20
2018-09-04T00:53:25.979Z,293.10
2018-09-04T00:54:25.966Z,294.10
2018-09-04T00:55:25.947Z,309.80
2018-09-04T00:56:25.954Z,326.30
2018-09-04T00:57:25.925Z,333.90
2018-09-04T00:58:25.912Z,319.40
2018-09-04T00:59:25.909Z,297.20
2018-09-04T01:00:25.895Z,295.90
2018-09-04T01:01:25.899Z,287.90
2018-09-04T01:02:25.869Z,287.40
2018-09-04T01:03:25.866Z,324.30
2018-09-04T01:04:25.871Z,223.50
2018-09-04T01:05:25.841Z,214.10
2018-09-04T01:06:25.851Z,249.50
2018-09-04T01:07:25.815Z,212.10
2018-09-04T01:08:25.807Z,315.70
2018-09-04T01:09:25.796Z,255.80
2018-09-04T01:10:25.784Z,179.40
2018-09-04T01:11:25.814Z,178.30
2018-09-04T01:12:25.765Z,196.50
2018-09-04T01:13:25.751Z,194.40
2018-09-04T01:14:25.745Z,228.30
2018-09-04T01:15:25.730Z,223.70
2018-09-04T01:16:25.739Z,213.40
2018-09-04T01:17:25.712Z,315.40
2018-09-04T01:18:25.716Z,229.40
2018-09-04T01:19:25.686Z,280.20
2018-09-04T01:20:25.681Z,299.20
2018-09-04T01:21:25.684Z,287.20
2018-09-04T01:22:25.655Z,280.00
2018-09-04T01:23:25.651Z,217.10
2018-09-04T01:24:25.641Z,207.30
2018-09-04T01:25:25.627Z,225.40
2018-09-04T01:26:25.636Z,254.00
2018-09-04T01:27:25.609Z,285.30
2018-09-04T01:28:25.592Z,214.70
2018-09-04T01:29:25.582Z,231.00
2018-09-04T01:30:25.569Z,211.50
2018-09-04T01:31:25.589Z,207.10
2018-09-04T01:32:25.552Z,216.00
2018-09-04T01:33:25.541Z,228.30
2018-09-04T01:34:25.525Z,243.40
2018-09-04T01:35:25.522Z,272.80
2018-09-04T01:36:25.526Z,279.90
2018-09-04T01:37:25.497Z,322.20
2018-09-04T01:38:25.489Z,318.90
2018-09-04T01:39:25.471Z,340.30
2018-09-04T01:40:25.464Z,313.60
2018-09-04T01:41:25.475Z,192.10
2018-09-04T01:42:25.445Z,203.40
2018-09-04T01:43:25.428Z,223.20
2018-09-04T01:44:25.419Z,216.10
2018-09-04T01:45:25.410Z,212.10
2018-09-04T01:46:25.412Z,187.10
2018-09-04T01:47:25.392Z,224.90
2018-09-04T01:48:25.378Z,200.60
2018-09-04T01:49:25.367Z,210.90
2018-09-04T01:50:25.352Z,212.70
2018-09-04T01:51:25.365Z,216.60
2018-09-04T01:52:25.336Z,217.60
2018-09-04T01:53:25.324Z,216.70
2018-09-04T01:54:25.315Z,251.10
2018-09-04T01:55:25.297Z,340.80
2018-09-04T01:56:25.312Z,315.90
2018-09-04T01:57:25.278Z,280.30
2018-09-04T01:58:25.265Z,305.10
2018-09-04T01:59:25.261Z,282.90
2018-09-04T02:00:25.248Z,280.10
2018-09-04T02:01:25.254Z,289.10
2018-09-04T02:02:25.232Z,265.90
2018-09-04T02:03:25.227Z,189.70
2018-09-04T02:04:25.202Z,213.00
2018-09-04T02:05:25.194Z,190.60
2018-09-04T02:06:25.204Z,205.30
2018-09-04T02:07:25.168Z,182.80
2018-09-04T02:08:25.160Z,247.50
2018-09-04T02:09:25.149Z,240.60
2018-09-04T02:10:25.139Z,232.80
2018-09-04T02:11:25.150Z,212.00
2018-09-04T02:12:25.119Z,232.40
2018-09-04T02:13:25.108Z,213.30
2018-09-04T02:14:25.099Z,241.70
2018-09-04T02:15:25.087Z,234.50
2018-09-04T02:16:25.092Z,305.20
2018-09-04T02:17:25.064Z,333.30
2018-09-04T02:18:25.052Z,324.20
2018-09-04T02:19:25.046Z,197.30
2018-09-04T02:20:25.033Z,225.50
2018-09-04T02:21:25.038Z,277.70
2018-09-04T02:22:25.007Z,323.60
2018-09-04T02:23:25.006Z,216.40
2018-09-04T02:24:24.989Z,225.40
2018-09-04T02:25:24.981Z,381.10
2018-09-04T02:26:24.989Z,246.30
2018-09-04T02:27:24.956Z,228.30
2018-09-04T02:28:24.944Z,220.40
2018-09-04T02:29:24.944Z,218.10
2018-09-04T02:30:24.920Z,284.40
2018-09-04T02:31:24.933Z,246.30
2018-09-04T02:32:24.902Z,221.50
2018-09-04T02:33:24.894Z,265.30
2018-09-04T02:34:24.889Z,304.10
2018-09-04T02:35:24.867Z,252.40
2018-09-04T02:36:24.880Z,296.00
2018-09-04T02:37:24.849Z,328.40
2018-09-04T02:38:24.841Z,239.20
2018-09-04T02:39:24.824Z,261.40
2018-09-04T02:40:24.814Z,273.80
2018-09-04T02:41:24.826Z,263.40
2018-09-04T02:42:24.790Z,239.10
2018-09-04T02:43:24.787Z,316.70
2018-09-04T02:44:24.773Z,299.00
2018-09-04T02:45:24.764Z,341.40
2018-09-04T02:46:24.785Z,409.00
2018-09-04T02:47:24.739Z,385.80
2018-09-04T02:48:24.724Z,402.50
2018-09-04T02:49:24.714Z,233.10
2018-09-04T02:50:24.707Z,274.40
2018-09-04T02:51:24.716Z,266.80
2018-09-04T02:52:24.689Z,366.20
2018-09-04T02:53:24.716Z,358.10
2018-09-04T02:54:24.663Z,263.90
2018-09-04T02:55:24.663Z,192.30
2018-09-04T02:56:24.662Z,216.60
2018-09-04T02:57:24.634Z,230.50
2018-09-04T02:58:24.621Z,197.90
2018-09-04T02:59:24.608Z,301.70
2018-09-04T03:00:24.600Z,274.70
2018-09-04T03:01:24.601Z,224.50
2018-09-04T03:02:24.575Z,213.30
2018-09-04T03:03:24.567Z,288.50
2018-09-04T03:04:24.564Z,356.10
2018-09-04T03:05:24.547Z,290.60
2018-09-04T03:06:24.556Z,248.80
2018-09-04T03:07:24.524Z,415.60
2018-09-04T03:08:24.509Z,427.50
2018-09-04T03:09:24.504Z,346.80
2018-09-04T03:10:24.492Z,233.00
2018-09-04T03:11:24.496Z,176.40
2018-09-04T03:12:24.467Z,272.60
2018-09-04T03:13:24.524Z,270.70
2018-09-04T03:14:24.447Z,169.50
2018-09-04T03:15:24.437Z,188.20
2018-09-04T03:16:24.446Z,203.70
2018-09-04T03:17:24.418Z,194.70
2018-09-04T03:18:24.406Z,336.80
2018-09-04T03:19:24.392Z,432.90
2018-09-04T03:20:24.378Z,187.20
2018-09-04T03:21:24.386Z,218.50
2018-09-04T03:22:24.359Z,174.20
2018-09-04T03:23:24.353Z,221.80
2018-09-04T03:24:24.343Z,235.70
2018-09-04T03:25:24.325Z,333.90
2018-09-04T03:26:24.336Z,1298.30
2018-09-04T03:27:24.309Z,774.40
2018-09-04T03:28:24.305Z,350.30
2018-09-04T03:29:24.290Z,216.00
2018-09-04T03:30:24.281Z,173.70
2018-09-04T03:31:24.280Z,182.60
2018-09-04T03:32:24.252Z,187.20
2018-09-04T03:33:24.239Z,241.10
2018-09-04T03:34:24.230Z,198.10
2018-09-04T03:35:24.221Z,182.40
2018-09-04T03:36:24.236Z,188.20
2018-09-04T03:37:24.210Z,182.10
2018-09-04T03:38:24.188Z,171.50
2018-09-04T03:39:24.175Z,184.80
2018-09-04T03:40:24.162Z,220.80
2018-09-04T03:41:24.178Z,202.80
2018-09-04T03:42:24.212Z,310.70
2018-09-04T03:43:24.134Z,246.20
2018-09-04T03:44:24.166Z,991.30
2018-09-04T03:45:24.108Z,241.80
2018-09-04T03:46:24.116Z,196.40
2018-09-04T03:47:24.091Z,195.30
2018-09-04T03:48:24.081Z,257.90
2018-09-04T03:49:24.070Z,429.90
2018-09-04T03:50:24.058Z,490.30
2018-09-04T03:51:24.061Z,344.10
2018-09-04T03:52:24.091Z,242.10
2018-09-04T03:53:24.021Z,242.80
2018-09-04T03:54:24.011Z,280.30
2018-09-04T03:55:24.003Z,1585.20
2018-09-04T03:56:24.011Z,1494.00
2018-09-04T03:57:23.987Z,228.10
2018-09-04T03:58:23.968Z,255.60
2018-09-04T03:59:23.960Z,280.40
2018-09-04T04:00:23.950Z,289.80
2018-09-04T04:01:24.016Z,191.20
2018-09-04T04:02:23.930Z,247.70
2018-09-04T04:03:23.914Z,258.60
2018-09-04T04:04:23.902Z,182.70
2018-09-04T04:05:23.889Z,190.80
2018-09-04T04:06:23.909Z,221.60
2018-09-04T04:07:23.871Z,168.50
2018-09-04T04:08:23.872Z,169.00
2018-09-04T04:09:23.852Z,181.90
2018-09-04T04:10:23.838Z,196.40
2018-09-04T04:11:23.843Z,214.60
2018-09-04T04:12:23.864Z,300.50
2018-09-04T04:13:23.809Z,218.50
2018-09-04T04:14:23.794Z,272.70
2018-09-04T04:15:23.782Z,268.20
2018-09-04T04:16:23.823Z,224.70
2018-09-04T04:17:23.758Z,189.00
2018-09-04T04:18:23.751Z,300.70
2018-09-04T04:19:23.743Z,220.00
2018-09-04T04:20:23.732Z,194.90
2018-09-04T04:21:23.742Z,204.40
2018-09-04T04:22:23.707Z,233.90
2018-09-04T04:23:23.696Z,207.80
2018-09-04T04:24:23.681Z,370.70
2018-09-04T04:25:23.671Z,610.70
2018-09-04T04:26:23.679Z,1560.90
2018-09-04T04:27:23.666Z,189.60
2018-09-04T04:28:23.644Z,202.70
2018-09-04T04:29:23.635Z,261.00
2018-09-04T04:30:23.617Z,393.50
2018-09-04T04:31:23.627Z,419.70
2018-09-04T04:32:23.614Z,1397.70
2018-09-04T04:33:23.619Z,1944.40
2018-09-04T04:34:23.577Z,1640.60
2018-09-04T04:35:23.568Z,837.60
2018-09-04T04:36:23.566Z,279.40
2018-09-04T04:37:23.549Z,201.10
2018-09-04T04:38:23.530Z,221.10
2018-09-04T04:39:23.522Z,220.20
2018-09-04T04:40:23.528Z,222.80
2018-09-04T04:41:23.662Z,190.70
2018-09-04T04:42:23.562Z,205.30
2018-09-04T04:43:23.477Z,203.50
2018-09-04T04:44:23.462Z,227.40
2018-09-04T04:45:23.459Z,218.10
2018-09-04T04:46:23.461Z,207.00
2018-09-04T04:47:23.433Z,247.20
2018-09-04T04:48:23.564Z,422.10
2018-09-04T04:49:23.408Z,405.20
2018-09-04T04:50:23.400Z,332.60
2018-09-04T04:51:23.732Z,325.60
2018-09-04T04:52:23.452Z,212.10
2018-09-04T04:53:23.396Z,215.00
2018-09-04T04:54:23.357Z,279.30
2018-09-04T04:55:23.344Z,215.00
2018-09-04T04:56:23.348Z,289.30
2018-09-04T04:57:23.320Z,340.00
2018-09-04T04:58:23.315Z,539.10
2018-09-04T04:59:23.320Z,269.00
2018-09-04T05:00:23.327Z,314.40
2018-09-04T05:01:23.307Z,430.70
2018-09-04T05:02:23.272Z,288.10
2018-09-04T05:03:23.260Z,205.00
2018-09-04T05:04:23.263Z,260.90
2018-09-04T05:05:23.240Z,305.70
2018-09-04T05:06:23.273Z,315.90
2018-09-04T05:07:23.214Z,318.30
2018-09-04T05:08:23.201Z,959.40
2018-09-04T05:09:23.196Z,389.80
2018-09-04T05:10:23.183Z,240.70
2018-09-04T05:11:23.246Z,214.90
2018-09-04T05:12:23.164Z,362.60
2018-09-04T05:13:23.153Z,281.60
2018-09-04T05:14:23.156Z,291.40
2018-09-04T05:15:23.156Z,303.30
2018-09-04T05:16:23.145Z,298.60
2018-09-04T05:17:23.109Z,279.70
2018-09-04T05:18:23.095Z,287.20
2018-09-04T05:19:23.089Z,287.20
2018-09-04T05:20:23.076Z,261.70
2018-09-04T05:21:23.080Z,237.10
2018-09-04T05:22:23.051Z,252.50
2018-09-04T05:23:23.043Z,680.00
2018-09-04T05:24:23.033Z,320.80
2018-09-04T05:25:23.023Z,284.00
2018-09-04T05:26:23.027Z,385.70
2018-09-04T05:27:22.995Z,301.30
2018-09-04T05:28:22.988Z,569.10
2018-09-04T05:29:23.063Z,496.60
2018-09-04T05:30:22.967Z,245.70
2018-09-04T05:31:22.974Z,217.20
2018-09-04T05:32:22.946Z,240.70
2018-09-04T05:33:22.928Z,253.60
2018-09-04T05:34:22.921Z,215.80
2018-09-04T05:35:22.912Z,257.50
2018-09-04T05:36:22.954Z,289.00
2018-09-04T05:37:22.898Z,450.10
2018-09-04T05:38:22.894Z,349.40
2018-09-04T05:39:22.864Z,226.30
2018-09-04T05:40:22.852Z,213.20
2018-09-04T05:41:22.857Z,373.50
2018-09-04T05:42:22.836Z,472.40
2018-09-04T05:43:22.833Z,639.20
2018-09-04T05:44:22.816Z,266.30
2018-09-04T05:45:22.804Z,231.10
2018-09-04T05:46:22.832Z,358.60
2018-09-04T05:47:22.780Z,379.40
2018-09-04T05:48:22.781Z,476.30
2018-09-04T05:49:22.760Z,231.80
2018-09-04T05:50:22.746Z,271.70
2018-09-04T05:51:22.736Z,343.90
2018-09-04T05:52:22.740Z,215.80
2018-09-04T05:53:22.710Z,233.70
2018-09-04T05:54:22.720Z,298.00
2018-09-04T05:55:23.088Z,224.30
2018-09-04T05:56:22.707Z,237.40
2018-09-04T05:57:22.720Z,294.70
2018-09-04T05:58:22.659Z,284.90
2018-09-04T05:59:22.645Z,300.10
2018-09-04T06:00:22.633Z,202.20
2018-09-04T06:01:22.626Z,213.10
2018-09-04T06:02:22.639Z,251.80
2018-09-04T06:03:22.607Z,230.50
2018-09-04T06:04:22.597Z,205.70
2018-09-04T06:05:22.580Z,228.30
2018-09-04T06:06:22.572Z,227.00
2018-09-04T06:07:22.584Z,210.30
2018-09-04T06:08:22.554Z,250.50
2018-09-04T06:09:22.547Z,220.90
2018-09-04T06:10:22.529Z,271.80
2018-09-04T06:11:22.524Z,191.20
2018-09-04T06:12:22.533Z,171.40
2018-09-04T06:13:22.507Z,179.70
2018-09-04T06:14:22.487Z,146.00
2018-09-04T06:15:22.483Z,170.00
2018-09-04T06:16:22.467Z,179.20
2018-09-04T06:17:22.475Z,159.80
2018-09-04T06:18:22.442Z,187.60
2018-09-04T06:19:22.433Z,185.40
2018-09-04T06:20:22.417Z,165.20
2018-09-04T06:21:22.412Z,223.80
2018-09-04T06:22:22.418Z,139.00
2018-09-04T06:23:22.388Z,209.80
2018-09-04T06:24:22.383Z,168.80
2018-09-04T06:25:22.388Z,213.40
2018-09-04T06:26:22.356Z,135.30
2018-09-04T06:27:22.366Z,115.50
2018-09-04T06:28:22.338Z,132.20
2018-09-04T06:29:22.379Z,138.10
2018-09-04T06:30:22.314Z,139.30
2018-09-04T06:31:22.300Z,139.10
2018-09-04T06:32:22.305Z,143.40
2018-09-04T06:33:22.276Z,158.50
2018-09-04T06:34:22.275Z,160.00
2018-09-04T06:35:22.259Z,170.50
2018-09-04T06:36:22.250Z,123.40
2018-09-04T06:37:22.255Z,123.80
2018-09-04T06:38:22.241Z,129.80
2018-09-04T06:39:22.224Z,126.00
2018-09-04T06:40:22.207Z,127.80
2018-09-04T06:41:22.196Z,124.60
2018-09-04T06:42:22.200Z,130.40
2018-09-04T06:43:22.172Z,117.20
2018-09-04T06:44:22.156Z,131.90
2018-09-04T06:45:22.145Z,126.60
2018-09-04T06:46:22.179Z,106.00
2018-09-04T06:47:22.145Z,123.90
2018-09-04T06:48:22.121Z,134.50
2018-09-04T06:49:22.110Z,140.80
2018-09-04T06:50:22.125Z,117.30
2018-09-04T06:51:22.089Z,143.10
2018-09-04T06:52:22.087Z,152.60
2018-09-04T06:53:22.068Z,124.50
2018-09-04T06:54:22.053Z,163.90
2018-09-04T06:55:22.039Z,146.70
2018-09-04T06:56:22.027Z,132.40
2018-09-04T06:57:22.043Z,158.80
2018-09-04T06:58:22.009Z,149.50
2018-09-04T06:59:22.011Z,127.40
2018-09-04T07:00:21.990Z,131.60
2018-09-04T07:01:22.004Z,135.30
2018-09-04T07:02:21.979Z,142.10
2018-09-04T07:03:21.958Z,102.40
2018-09-04T07:04:21.945Z,139.70
2018-09-04T07:05:21.934Z,115.90
2018-09-04T07:06:21.928Z,134.70
2018-09-04T07:07:21.926Z,129.00
2018-09-04T07:08:21.900Z,129.70
2018-09-04T07:09:21.892Z,128.70
2018-09-04T07:10:21.883Z,124.10
2018-09-04T07:11:21.890Z,117.30
2018-09-04T07:12:21.889Z,106.80
2018-09-04T07:13:21.847Z,102.50
2018-09-04T07:14:21.835Z,116.60
2018-09-04T07:15:21.881Z,125.10
2018-09-04T07:16:21.842Z,115.60
2018-09-04T07:17:21.826Z,102.30
2018-09-04T07:18:21.799Z,116.00
2018-09-04T07:19:21.780Z,131.20
2018-09-04T07:20:21.799Z,108.40
2018-09-04T07:21:21.771Z,145.10
2018-09-04T07:22:21.766Z,120.40
2018-09-04T07:23:21.746Z,86.00
2018-09-04T07:24:21.774Z,94.80
2018-09-04T07:25:21.729Z,92.40
2018-09-04T07:26:21.713Z,103.20
2018-09-04T07:27:21.728Z,103.50
2018-09-04T07:28:21.690Z,110.10
2018-09-04T07:29:21.682Z,129.90
2018-09-04T07:30:21.674Z,114.90
2018-09-04T07:31:21.653Z,85.20
2018-09-04T07:32:21.662Z,82.20
2018-09-04T07:33:21.634Z,91.20
2018-09-04T07:34:21.619Z,110.80
2018-09-04T07:35:21.618Z,93.80
2018-09-04T07:36:21.667Z,105.30
2018-09-04T07:37:21.611Z,96.10
2018-09-04T07:38:21.588Z,101.20
2018-09-04T07:39:21.566Z,103.30
2018-09-04T07:40:21.556Z,107.70
2018-09-04T07:41:21.579Z,102.30
2018-09-04T07:42:21.559Z,115.50
2018-09-04T07:43:21.522Z,100.40
2018-09-04T07:44:21.513Z,99.60
2018-09-04T07:45:21.508Z,99.40
2018-09-04T07:46:21.490Z,87.50
2018-09-04T07:47:21.568Z,92.40
2018-09-04T07:48:21.472Z,84.20
2018-09-04T07:49:21.488Z,70.50
2018-09-04T07:50:21.454Z,78.20
2018-09-04T07:51:21.438Z,92.20
2018-09-04T07:52:21.448Z,72.50
2018-09-04T07:53:21.419Z,81.50
2018-09-04T07:54:21.404Z,73.10
2018-09-04T07:55:21.401Z,73.30
2018-09-04T07:56:21.386Z,71.30
2018-09-04T07:57:21.392Z,72.80
2018-09-04T07:58:21.363Z,69.20
2018-09-04T07:59:21.380Z,71.70
2018-09-04T08:00:21.347Z,69.00
2018-09-04T08:01:21.337Z,72.20
2018-09-04T08:02:21.354Z,68.40
2018-09-04T08:03:21.307Z,61.10
2018-09-04T08:04:21.300Z,67.70
2018-09-04T08:05:21.287Z,68.20
2018-09-04T08:06:21.276Z,66.50
2018-09-04T08:07:21.306Z,70.00
2018-09-04T08:08:21.264Z,70.60
2018-09-04T08:09:21.247Z,68.80
2018-09-04T08:10:21.240Z,74.20
2018-09-04T08:11:21.220Z,62.10
2018-09-04T08:12:21.229Z,67.70
2018-09-04T08:13:21.204Z,70.00
2018-09-04T08:14:21.195Z,67.30
2018-09-04T08:15:21.177Z,67.80
2018-09-04T08:16:21.225Z,63.80
2018-09-04T08:17:21.179Z,65.50
2018-09-04T08:18:21.145Z,66.10
2018-09-04T08:19:21.140Z,64.50
2018-09-04T08:20:21.201Z,67.80
2018-09-04T08:21:21.151Z,67.70
2018-09-04T08:22:21.208Z,71.30
2018-09-04T08:23:21.130Z,70.20
2018-09-04T08:24:21.243Z,66.80
2018-09-04T08:25:21.112Z,69.20
2018-09-04T08:26:21.090Z,65.00
2018-09-04T08:27:21.152Z,66.90
2018-09-04T08:28:21.075Z,65.10
2018-09-04T08:29:21.061Z,65.80
2018-09-04T08:30:21.044Z,70.50
2018-09-04T08:31:21.044Z,74.00
2018-09-04T08:32:21.089Z,70.10
2018-09-04T08:33:21.089Z,69.30
2018-09-04T08:34:21.009Z,68.40
2018-09-04T08:35:21.002Z,71.10
2018-09-04T08:36:20.953Z,71.30
2018-09-04T08:37:20.961Z,70.40
2018-09-04T08:38:20.930Z,67.20
2018-09-04T08:39:20.928Z,70.90
2018-09-04T08:40:20.914Z,69.40
2018-09-04T08:41:20.905Z,67.60
2018-09-04T08:42:20.918Z,70.80
2018-09-04T08:43:20.880Z,69.90
2018-09-04T08:44:20.896Z,68.70
2018-09-04T08:45:20.936Z,70.40
2018-09-04T08:46:20.855Z,72.90
2018-09-04T08:47:20.932Z,73.80
2018-09-04T08:48:20.827Z,69.00
2018-09-04T08:49:20.817Z,71.20
2018-09-04T08:50:20.806Z,67.00
2018-09-04T08:51:20.801Z,70.20
2018-09-04T08:52:20.811Z,70.20
2018-09-04T08:53:20.797Z,71.20
2018-09-04T08:54:20.770Z,69.10
2018-09-04T08:55:20.782Z,70.10
2018-09-04T08:56:20.744Z,71.90
2018-09-04T08:57:20.751Z,69.20
2018-09-04T08:58:20.722Z,69.10
2018-09-04T08:59:20.719Z,69.90
2018-09-04T09:00:20.709Z,65.30
2018-09-04T09:01:20.693Z,72.40
2018-09-04T09:02:20.697Z,70.80
2018-09-04T09:03:20.678Z,67.10
2018-09-04T09:04:20.667Z,69.00
2018-09-04T09:05:20.688Z,69.30
2018-09-04T09:06:20.647Z,65.40
2018-09-04T09:07:20.643Z,68.00
2018-09-04T09:08:20.618Z,67.10
2018-09-04T09:09:20.628Z,66.30
2018-09-04T09:10:20.594Z,67.40
2018-09-04T09:11:20.590Z,63.70
2018-09-04T09:12:20.594Z,65.70
2018-09-04T09:13:20.569Z,66.70
2018-09-04T09:14:20.560Z,66.20
2018-09-04T09:15:20.553Z,63.80
2018-09-04T09:16:20.532Z,63.70
2018-09-04T09:17:20.543Z,61.70
2018-09-04T09:18:20.520Z,63.30
2018-09-04T09:19:20.502Z,59.90
2018-09-04T09:20:20.529Z,60.20
2018-09-04T09:21:20.480Z,60.70
2018-09-04T09:22:20.491Z,61.00
2018-09-04T09:23:20.470Z,59.10
2018-09-04T09:24:20.452Z,61.80
2018-09-04T09:25:20.444Z,63.40
2018-09-04T09:26:20.439Z,62.90
2018-09-04T09:27:20.442Z,62.90
2018-09-04T09:28:20.449Z,65.30
2018-09-04T09:29:20.395Z,63.50
2018-09-04T09:30:20.383Z,61.80
2018-09-04T09:31:20.394Z,62.30
2018-09-04T09:32:20.392Z,62.90
2018-09-04T09:33:20.353Z,61.50
2018-09-04T09:34:20.340Z,63.30
2018-09-04T09:35:20.374Z,64.00
2018-09-04T09:36:20.325Z,60.20
2018-09-04T09:37:20.333Z,62.50
2018-09-04T09:38:20.307Z,62.90
2018-09-04T09:39:20.294Z,63.50
2018-09-04T09:40:20.279Z,61.60
2018-09-04T09:41:20.271Z,63.10
2018-09-04T09:42:20.274Z,63.20
2018-09-04T09:43:20.258Z,62.10
2018-09-04T09:44:20.240Z,65.00
2018-09-04T09:45:20.230Z,60.80
2018-09-04T09:46:20.233Z,61.60
2018-09-04T09:47:20.224Z,62.70
2018-09-04T09:48:20.231Z,60.40
2018-09-04T09:49:20.189Z,59.60
2018-09-04T09:50:20.181Z,59.90
2018-09-04T09:51:20.164Z,57.20
2018-09-04T09:52:20.174Z,58.50
2018-09-04T09:53:20.288Z,58.30
2018-09-04T09:54:20.134Z,57.00
2018-09-04T09:55:20.128Z,57.50
2018-09-04T09:56:20.151Z,60.00
2018-09-04T09:57:20.131Z,59.50
2018-09-04T09:58:20.099Z,59.10
2018-09-04T09:59:20.138Z,62.00
2018-09-04T10:00:20.077Z,59.00
2018-09-04T10:01:20.062Z,58.70
2018-09-04T10:02:20.066Z,55.80
2018-09-04T10:03:20.045Z,56.70
2018-09-04T10:04:20.036Z,60.50
2018-09-04T10:05:20.020Z,54.50
2018-09-04T10:06:20.011Z,57.00
2018-09-04T10:07:20.022Z,56.10
2018-09-04T10:08:20.023Z,55.30
2018-09-04T10:09:19.980Z,53.50
2018-09-04T10:10:20.034Z,54.70
2018-09-04T10:11:19.959Z,51.90
2018-09-04T10:12:19.966Z,51.80
2018-09-04T10:13:19.935Z,54.30
2018-09-04T10:14:19.923Z,53.20
2018-09-04T10:15:19.920Z,54.00
2018-09-04T10:16:19.907Z,53.10
2018-09-04T10:17:19.913Z,50.70
2018-09-04T10:18:19.889Z,51.90
2018-09-04T10:19:19.871Z,50.40
2018-09-04T10:20:19.870Z,50.90
2018-09-04T10:21:19.876Z,52.00
2018-09-04T10:22:19.872Z,51.70
2018-09-04T10:23:19.834Z,51.20
2018-09-04T10:24:19.820Z,49.10
2018-09-04T10:25:19.818Z,52.30
2018-09-04T10:26:19.815Z,50.10
2018-09-04T10:27:19.812Z,48.20
2018-09-04T10:28:19.781Z,44.70
2018-09-04T10:29:19.776Z,44.90
2018-09-04T10:30:19.763Z,45.50
2018-09-04T10:31:19.745Z,43.60
2018-09-04T10:32:19.756Z,44.70
2018-09-04T10:33:19.727Z,46.40
2018-09-04T10:34:19.723Z,46.00
2018-09-04T10:35:19.710Z,46.20
2018-09-04T10:36:19.779Z,44.80
2018-09-04T10:37:19.709Z,42.80
2018-09-04T10:38:19.672Z,45.80
2018-09-04T10:39:19.669Z,43.80
2018-09-04T10:40:19.660Z,46.70
2018-09-04T10:41:19.646Z,43.40
2018-09-04T10:42:19.656Z,43.80
2018-09-04T10:43:19.620Z,43.00
2018-09-04T10:44:19.694Z,43.50
2018-09-04T10:45:19.626Z,42.10
2018-09-04T10:46:19.589Z,40.60
2018-09-04T10:47:20.038Z,40.50
2018-09-04T10:48:19.573Z,40.70
2018-09-04T10:49:19.562Z,40.30
2018-09-04T10:50:19.565Z,38.90
2018-09-04T10:51:19.581Z,40.00
2018-09-04T10:52:19.606Z,42.20
2018-09-04T10:53:19.523Z,42.60
2018-09-04T10:54:19.516Z,40.40
2018-09-04T10:55:19.497Z,39.30
2018-09-04T10:56:19.689Z,37.90
2018-09-04T10:57:19.496Z,36.60
2018-09-04T10:58:19.574Z,37.30
2018-09-04T10:59:19.463Z,37.10
2018-09-04T11:00:19.483Z,38.40
2018-09-04T11:01:19.438Z,36.40
2018-09-04T11:02:19.544Z,36.40
2018-09-04T11:03:19.415Z,35.70
2018-09-04T11:04:19.408Z,37.50
2018-09-04T11:05:19.395Z,38.70
2018-09-04T11:06:19.384Z,40.30
2018-09-04T11:07:19.397Z,38.10
2018-09-04T11:08:19.365Z,39.60
2018-09-04T11:09:19.407Z,36.20
2018-09-04T11:10:19.339Z,34.80
2018-09-04T11:11:19.359Z,35.80
2018-09-04T11:12:19.354Z,38.10
2018-09-04T11:13:19.313Z,37.10
2018-09-04T11:14:19.369Z,37.70
2018-09-04T11:15:19.287Z,36.70
2018-09-04T11:16:19.280Z,36.70
2018-09-04T11:17:19.354Z,35.50
2018-09-04T11:18:19.324Z,35.80
2018-09-04T11:19:19.251Z,33.20
2018-09-04T11:20:19.244Z,33.10
2018-09-04T11:21:19.230Z,32.10
2018-09-04T11:22:19.235Z,33.10
2018-09-04T11:23:19.205Z,30.10
2018-09-04T11:24:19.194Z,30.70
2018-09-04T11:25:19.190Z,30.00
2018-09-04T11:26:19.177Z,32.50
2018-09-04T11:27:19.181Z,30.40
2018-09-04T11:28:19.154Z,31.10
2018-09-04T11:29:19.141Z,32.70
2018-09-04T11:30:19.136Z,30.70
2018-09-04T11:31:19.127Z,30.70
2018-09-04T11:32:19.137Z,30.70
2018-09-04T11:33:19.132Z,30.60
2018-09-04T11:34:19.095Z,29.20
2018-09-04T11:35:19.083Z,28.20
2018-09-04T11:36:19.070Z,28.20
2018-09-04T11:37:19.077Z,31.50
2018-09-04T11:38:19.054Z,30.80
2018-09-04T11:39:19.047Z,29.90
2018-09-04T11:40:19.040Z,28.50
2018-09-04T11:41:19.019Z,28.60
2018-09-04T11:42:19.029Z,29.20
2018-09-04T11:43:19.004Z,31.00
2018-09-04T11:44:18.996Z,30.50
2018-09-04T11:45:18.992Z,30.70
2018-09-04T11:46:18.974Z,30.90
2018-09-04T11:47:18.982Z,27.70
2018-09-04T11:48:18.948Z,28.20
2018-09-04T11:49:18.938Z,26.90
2018-09-04T11:50:18.930Z,27.50
2018-09-04T11:51:18.921Z,26.80
2018-09-04T11:52:18.973Z,27.40
2018-09-04T11:53:18.907Z,28.20
2018-09-04T11:54:18.906Z,27.70
2018-09-04T11:55:18.884Z,30.10
2018-09-04T11:56:18.876Z,29.20
2018-09-04T11:57:18.884Z,31.20
2018-09-04T11:58:18.871Z,30.80
2018-09-04T11:59:18.839Z,29.80
2018-09-04T12:00:18.827Z,29.30
2018-09-04T12:01:18.816Z,27.80
2018-09-04T12:02:18.909Z,25.40
2018-09-04T12:03:18.807Z,26.70
2018-09-04T12:04:18.800Z,25.90
2018-09-04T12:05:18.777Z,27.90
2018-09-04T12:06:18.765Z,28.30
2018-09-04T12:07:18.759Z,28.60
2018-09-04T12:08:18.764Z,29.70
2018-09-04T12:09:18.736Z,30.30
2018-09-04T12:10:18.726Z,28.60
2018-09-04T12:11:18.717Z,27.60
2018-09-04T12:12:18.752Z,29.80
2018-09-04T12:13:18.710Z,30.20
2018-09-04T12:14:18.684Z,31.50
2018-09-04T12:15:18.677Z,32.20
2018-09-04T12:16:18.666Z,31.40
2018-09-04T12:17:18.655Z,30.60
2018-09-04T12:18:18.659Z,30.90
2018-09-04T12:19:18.713Z,30.60
2018-09-04T12:20:18.627Z,28.70
2018-09-04T12:21:18.672Z,31.80
2018-09-04T12:22:18.619Z,34.70
2018-09-04T12:23:18.609Z,34.40
2018-09-04T12:24:18.592Z,34.50
2018-09-04T12:25:18.571Z,33.30
2018-09-04T12:26:18.560Z,34.10
2018-09-04T12:27:18.658Z,33.90
2018-09-04T12:28:18.559Z,33.60
2018-09-04T12:29:18.531Z,33.30
2018-09-04T12:30:18.523Z,31.10
2018-09-04T12:31:18.514Z,31.70
2018-09-04T12:32:18.501Z,34.00
2018-09-04T12:33:18.511Z,31.00
2018-09-04T12:34:18.481Z,31.10
2018-09-04T12:35:18.507Z,30.00
2018-09-04T12:36:18.471Z,30.60
2018-09-04T12:37:18.458Z,31.20